sensor_id;sensor_type;location;lat;lon;timestamp;P1;durP1;ratioP1;P2;durP2;ratioP2
41259;SDS011;26993;48.958;9.330;2022-10-31T00:02:44;14.40;;;5.30;;
41259;SDS011;26993;48.958;9.330;2022-10-31T00:05:30;12.87;;;5.80;;
41259;SDS011;26993;48.958;9.330;2022-10-31T00:08:17;11.73;;;6.17;;
41259;SDS011;26993;48.958;9.330;2022-10-31T00:11:07;13.77;;;5.77;;
41259;SDS011;26993;48.958;9.330;2022-10-31T00:13:56;12.00;;;6.00;;
41259;SDS011;26993;48.958;9.330;2022-10-31T00:16:44;14.13;;;5.80;;
41259;SDS011;26993;48.958;9.330;2022-10-31T00:19:31;12.50;;;5.80;;
41259;SDS011;26993;48.958;9.330;2022-10-31T00:22:18;16.80;;;6.37;;
41259;SDS011;26993;48.958;9.330;2022-10-31T00:25:04;14.70;;;6.23;;
41259;SDS011;26993;48.958;9.330;2022-10-31T00:27:51;13.87;;;6.30;;
41259;SDS011;26993;48.958;9.330;2022-10-31T00:30:38;14.57;;;6.23;;
41259;SDS011;26993;48.958;9.330;2022-10-31T00:33:26;13.30;;;5.70;;
41259;SDS011;26993;48.958;9.330;2022-10-31T00:36:13;13.00;;;6.13;;
41259;SDS011;26993;48.958;9.330;2022-10-31T00:39:01;14.57;;;5.20;;
41259;SDS011;26993;48.958;9.330;2022-10-31T00:41:48;14.47;;;6.00;;
41259;SDS011;26993;48.958;9.330;2022-10-31T00:44:35;18.13;;;7.03;;
41259;SDS011;26993;48.958;9.330;2022-10-31T00:47:21;14.77;;;6.10;;
41259;SDS011;26993;48.958;9.330;2022-10-31T00:50:09;11.57;;;6.33;;
41259;SDS011;26993;48.958;9.330;2022-10-31T00:52:57;17.37;;;5.90;;
41259;SDS011;26993;48.958;9.330;2022-10-31T00:55:43;9.97;;;5.70;;
41259;SDS011;26993;48.958;9.330;2022-10-31T00:58:30;16.33;;;6.47;;
41259;SDS011;26993;48.958;9.330;2022-10-31T01:01:17;15.27;;;6.07;;
41259;SDS011;26993;48.958;9.330;2022-10-31T01:04:03;14.23;;;5.77;;
41259;SDS011;26993;48.958;9.330;2022-10-31T01:06:51;15.90;;;5.93;;
41259;SDS011;26993;48.958;9.330;2022-10-31T01:09:38;16.63;;;5.70;;
41259;SDS011;26993;48.958;9.330;2022-10-31T01:12:25;14.10;;;4.93;;
41259;SDS011;26993;48.958;9.330;2022-10-31T01:15:12;17.30;;;6.03;;
41259;SDS011;26993;48.958;9.330;2022-10-31T01:18:00;10.90;;;5.77;;
41259;SDS011;26993;48.958;9.330;2022-10-31T01:20:47;11.63;;;5.07;;
41259;SDS011;26993;48.958;9.330;2022-10-31T01:23:35;15.10;;;5.83;;
41259;SDS011;26993;48.958;9.330;2022-10-31T01:26:23;12.40;;;5.27;;
41259;SDS011;26993;48.958;9.330;2022-10-31T01:29:11;15.40;;;5.90;;
41259;SDS011;26993;48.958;9.330;2022-10-31T01:31:57;16.70;;;5.63;;
41259;SDS011;26993;48.958;9.330;2022-10-31T01:34:44;13.33;;;5.50;;
41259;SDS011;26993;48.958;9.330;2022-10-31T01:37:30;8.47;;;5.20;;
41259;SDS011;26993;48.958;9.330;2022-10-31T01:40:18;8.97;;;4.97;;
41259;SDS011;26993;48.958;9.330;2022-10-31T01:43:07;11.47;;;5.30;;
41259;SDS011;26993;48.958;9.330;2022-10-31T01:45:57;12.60;;;5.33;;
41259;SDS011;26993;48.958;9.330;2022-10-31T01:48:44;10.40;;;5.20;;
41259;SDS011;26993;48.958;9.330;2022-10-31T01:51:33;12.43;;;5.20;;
41259;SDS011;26993;48.958;9.330;2022-10-31T01:54:23;15.73;;;5.13;;
41259;SDS011;26993;48.958;9.330;2022-10-31T01:57:15;18.83;;;5.67;;
41259;SDS011;26993;48.958;9.330;2022-10-31T02:00:06;12.53;;;6.13;;
41259;SDS011;26993;48.958;9.330;2022-10-31T02:02:54;15.90;;;5.97;;
41259;SDS011;26993;48.958;9.330;2022-10-31T02:05:41;11.60;;;5.37;;
41259;SDS011;26993;48.958;9.330;2022-10-31T02:08:30;17.60;;;5.30;;
41259;SDS011;26993;48.958;9.330;2022-10-31T02:11:19;15.70;;;5.27;;
41259;SDS011;26993;48.958;9.330;2022-10-31T02:14:07;13.40;;;5.37;;
41259;SDS011;26993;48.958;9.330;2022-10-31T02:16:54;14.67;;;5.50;;
41259;SDS011;26993;48.958;9.330;2022-10-31T02:19:43;12.43;;;6.00;;
41259;SDS011;26993;48.958;9.330;2022-10-31T02:22:40;14.50;;;6.17;;
41259;SDS011;26993;48.958;9.330;2022-10-31T02:25:45;11.93;;;5.40;;
41259;SDS011;26993;48.958;9.330;2022-10-31T02:28:51;14.33;;;5.53;;
41259;SDS011;26993;48.958;9.330;2022-10-31T02:31:51;12.23;;;4.53;;
41259;SDS011;26993;48.958;9.330;2022-10-31T02:34:48;18.27;;;5.27;;
41259;SDS011;26993;48.958;9.330;2022-10-31T02:37:42;12.63;;;4.97;;
41259;SDS011;26993;48.958;9.330;2022-10-31T02:40:37;9.70;;;5.30;;
41259;SDS011;26993;48.958;9.330;2022-10-31T02:43:34;9.90;;;4.80;;
41259;SDS011;26993;48.958;9.330;2022-10-31T02:46:27;13.50;;;5.17;;
41259;SDS011;26993;48.958;9.330;2022-10-31T02:49:23;14.17;;;5.27;;
41259;SDS011;26993;48.958;9.330;2022-10-31T02:52:17;11.13;;;4.80;;
41259;SDS011;26993;48.958;9.330;2022-10-31T02:55:11;13.57;;;5.20;;
41259;SDS011;26993;48.958;9.330;2022-10-31T02:58:19;11.57;;;4.70;;
41259;SDS011;26993;48.958;9.330;2022-10-31T03:04:49;8.27;;;5.27;;
41259;SDS011;26993;48.958;9.330;2022-10-31T03:07:50;10.03;;;5.33;;
41259;SDS011;26993;48.958;9.330;2022-10-31T03:10:43;14.33;;;5.17;;
41259;SDS011;26993;48.958;9.330;2022-10-31T03:13:35;14.63;;;5.83;;
41259;SDS011;26993;48.958;9.330;2022-10-31T03:16:27;11.50;;;4.97;;
41259;SDS011;26993;48.958;9.330;2022-10-31T03:19:19;9.83;;;5.00;;
41259;SDS011;26993;48.958;9.330;2022-10-31T03:22:15;7.80;;;5.10;;
41259;SDS011;26993;48.958;9.330;2022-10-31T03:25:04;16.03;;;5.40;;
41259;SDS011;26993;48.958;9.330;2022-10-31T03:27:52;10.87;;;5.47;;
41259;SDS011;26993;48.958;9.330;2022-10-31T03:30:40;10.03;;;5.50;;
41259;SDS011;26993;48.958;9.330;2022-10-31T03:33:29;15.13;;;5.80;;
41259;SDS011;26993;48.958;9.330;2022-10-31T03:36:20;13.80;;;4.87;;
41259;SDS011;26993;48.958;9.330;2022-10-31T03:39:11;13.50;;;5.20;;
41259;SDS011;26993;48.958;9.330;2022-10-31T03:42:02;12.90;;;5.20;;
41259;SDS011;26993;48.958;9.330;2022-10-31T03:44:53;12.53;;;5.10;;
41259;SDS011;26993;48.958;9.330;2022-10-31T03:47:44;11.53;;;5.30;;
41259;SDS011;26993;48.958;9.330;2022-10-31T03:50:32;10.07;;;5.43;;
41259;SDS011;26993;48.958;9.330;2022-10-31T03:53:25;8.63;;;5.40;;
41259;SDS011;26993;48.958;9.330;2022-10-31T03:56:19;12.47;;;5.87;;
41259;SDS011;26993;48.958;9.330;2022-10-31T03:59:11;9.43;;;5.17;;
41259;SDS011;26993;48.958;9.330;2022-10-31T04:02:05;14.30;;;5.27;;
41259;SDS011;26993;48.958;9.330;2022-10-31T04:04:53;10.23;;;5.53;;
41259;SDS011;26993;48.958;9.330;2022-10-31T04:07:43;7.77;;;5.20;;
41259;SDS011;26993;48.958;9.330;2022-10-31T04:10:32;10.83;;;5.77;;
41259;SDS011;26993;48.958;9.330;2022-10-31T04:13:24;9.30;;;5.30;;
41259;SDS011;26993;48.958;9.330;2022-10-31T04:16:13;10.30;;;5.37;;
41259;SDS011;26993;48.958;9.330;2022-10-31T04:19:01;11.33;;;5.67;;
41259;SDS011;26993;48.958;9.330;2022-10-31T04:21:48;11.33;;;5.13;;
41259;SDS011;26993;48.958;9.330;2022-10-31T04:24:35;17.37;;;5.70;;
41259;SDS011;26993;48.958;9.330;2022-10-31T04:27:23;11.67;;;5.33;;
41259;SDS011;26993;48.958;9.330;2022-10-31T04:30:11;15.17;;;6.17;;
41259;SDS011;26993;48.958;9.330;2022-10-31T04:32:58;10.03;;;5.10;;
41259;SDS011;26993;48.958;9.330;2022-10-31T04:35:45;10.23;;;5.63;;
41259;SDS011;26993;48.958;9.330;2022-10-31T04:38:32;13.13;;;5.90;;
41259;SDS011;26993;48.958;9.330;2022-10-31T04:41:19;8.97;;;4.90;;
41259;SDS011;26993;48.958;9.330;2022-10-31T04:44:05;11.47;;;4.97;;
41259;SDS011;26993;48.958;9.330;2022-10-31T04:46:53;8.83;;;5.03;;
41259;SDS011;26993;48.958;9.330;2022-10-31T04:49:40;8.60;;;4.83;;
41259;SDS011;26993;48.958;9.330;2022-10-31T04:52:26;13.17;;;5.37;;
41259;SDS011;26993;48.958;9.330;2022-10-31T04:55:13;9.83;;;5.37;;
41259;SDS011;26993;48.958;9.330;2022-10-31T04:58:00;11.90;;;5.53;;
41259;SDS011;26993;48.958;9.330;2022-10-31T05:00:47;8.93;;;5.60;;
41259;SDS011;26993;48.958;9.330;2022-10-31T05:03:35;14.67;;;6.20;;
41259;SDS011;26993;48.958;9.330;2022-10-31T05:06:21;14.87;;;6.57;;
41259;SDS011;26993;48.958;9.330;2022-10-31T05:09:08;11.03;;;5.97;;
41259;SDS011;26993;48.958;9.330;2022-10-31T05:11:55;12.67;;;6.47;;
41259;SDS011;26993;48.958;9.330;2022-10-31T05:14:41;11.37;;;5.90;;
41259;SDS011;26993;48.958;9.330;2022-10-31T05:17:28;11.97;;;5.60;;
41259;SDS011;26993;48.958;9.330;2022-10-31T05:20:16;10.90;;;5.30;;
41259;SDS011;26993;48.958;9.330;2022-10-31T05:23:05;13.30;;;5.33;;
41259;SDS011;26993;48.958;9.330;2022-10-31T05:25:51;15.40;;;6.63;;
41259;SDS011;26993;48.958;9.330;2022-10-31T05:28:38;17.13;;;6.23;;
41259;SDS011;26993;48.958;9.330;2022-10-31T05:31:25;11.93;;;6.13;;
41259;SDS011;26993;48.958;9.330;2022-10-31T05:34:11;15.27;;;5.30;;
41259;SDS011;26993;48.958;9.330;2022-10-31T05:36:59;13.90;;;5.87;;
41259;SDS011;26993;48.958;9.330;2022-10-31T05:39:46;11.63;;;6.43;;
41259;SDS011;26993;48.958;9.330;2022-10-31T05:42:32;17.03;;;6.87;;
41259;SDS011;26993;48.958;9.330;2022-10-31T05:45:20;16.00;;;6.10;;
41259;SDS011;26993;48.958;9.330;2022-10-31T05:48:07;18.07;;;6.53;;
41259;SDS011;26993;48.958;9.330;2022-10-31T05:50:54;12.80;;;6.27;;
41259;SDS011;26993;48.958;9.330;2022-10-31T05:53:42;16.10;;;6.53;;
41259;SDS011;26993;48.958;9.330;2022-10-31T05:56:29;23.43;;;7.27;;
41259;SDS011;26993;48.958;9.330;2022-10-31T05:59:16;11.43;;;5.83;;
41259;SDS011;26993;48.958;9.330;2022-10-31T06:02:03;19.40;;;6.47;;
41259;SDS011;26993;48.958;9.330;2022-10-31T06:04:50;14.70;;;6.10;;
41259;SDS011;26993;48.958;9.330;2022-10-31T06:07:36;14.50;;;7.17;;
41259;SDS011;26993;48.958;9.330;2022-10-31T06:10:24;15.20;;;6.70;;
41259;SDS011;26993;48.958;9.330;2022-10-31T06:13:12;17.77;;;6.00;;
41259;SDS011;26993;48.958;9.330;2022-10-31T06:15:58;10.63;;;5.57;;
41259;SDS011;26993;48.958;9.330;2022-10-31T06:18:45;13.63;;;5.87;;
41259;SDS011;26993;48.958;9.330;2022-10-31T06:21:32;13.63;;;5.30;;
41259;SDS011;26993;48.958;9.330;2022-10-31T06:24:19;15.33;;;5.60;;
41259;SDS011;26993;48.958;9.330;2022-10-31T06:27:07;20.70;;;5.80;;
41259;SDS011;26993;48.958;9.330;2022-10-31T06:29:53;14.30;;;6.03;;
41259;SDS011;26993;48.958;9.330;2022-10-31T06:32:40;17.37;;;6.43;;
41259;SDS011;26993;48.958;9.330;2022-10-31T06:35:26;12.13;;;6.10;;
41259;SDS011;26993;48.958;9.330;2022-10-31T06:38:13;21.13;;;6.30;;
41259;SDS011;26993;48.958;9.330;2022-10-31T06:41:01;19.10;;;7.17;;
41259;SDS011;26993;48.958;9.330;2022-10-31T06:43:50;15.80;;;6.60;;
41259;SDS011;26993;48.958;9.330;2022-10-31T06:46:37;18.40;;;6.80;;
41259;SDS011;26993;48.958;9.330;2022-10-31T06:49:23;15.10;;;5.70;;
41259;SDS011;26993;48.958;9.330;2022-10-31T06:52:10;20.67;;;6.30;;
41259;SDS011;26993;48.958;9.330;2022-10-31T06:54:57;13.43;;;6.23;;
41259;SDS011;26993;48.958;9.330;2022-10-31T06:57:48;22.20;;;6.17;;
41259;SDS011;26993;48.958;9.330;2022-10-31T07:00:38;20.37;;;6.90;;
41259;SDS011;26993;48.958;9.330;2022-10-31T07:03:24;19.73;;;6.13;;
41259;SDS011;26993;48.958;9.330;2022-10-31T07:06:11;21.60;;;7.00;;
41259;SDS011;26993;48.958;9.330;2022-10-31T07:08:57;30.03;;;6.60;;
41259;SDS011;26993;48.958;9.330;2022-10-31T07:11:44;20.93;;;6.77;;
41259;SDS011;26993;48.958;9.330;2022-10-31T07:14:31;18.33;;;5.87;;
41259;SDS011;26993;48.958;9.330;2022-10-31T07:17:19;23.03;;;6.83;;
41259;SDS011;26993;48.958;9.330;2022-10-31T07:20:09;17.80;;;6.50;;
41259;SDS011;26993;48.958;9.330;2022-10-31T07:22:56;19.43;;;6.07;;
41259;SDS011;26993;48.958;9.330;2022-10-31T07:25:44;17.63;;;6.90;;
41259;SDS011;26993;48.958;9.330;2022-10-31T07:28:30;16.40;;;6.97;;
41259;SDS011;26993;48.958;9.330;2022-10-31T07:31:17;18.80;;;6.23;;
41259;SDS011;26993;48.958;9.330;2022-10-31T07:34:05;22.27;;;6.30;;
41259;SDS011;26993;48.958;9.330;2022-10-31T07:36:52;12.10;;;6.57;;
41259;SDS011;26993;48.958;9.330;2022-10-31T07:39:39;16.83;;;6.80;;
41259;SDS011;26993;48.958;9.330;2022-10-31T07:42:25;19.00;;;7.63;;
41259;SDS011;26993;48.958;9.330;2022-10-31T07:45:14;19.10;;;6.97;;
41259;SDS011;26993;48.958;9.330;2022-10-31T07:48:02;21.33;;;7.07;;
41259;SDS011;26993;48.958;9.330;2022-10-31T07:50:50;15.60;;;7.17;;
41259;SDS011;26993;48.958;9.330;2022-10-31T07:53:37;17.47;;;7.33;;
41259;SDS011;26993;48.958;9.330;2022-10-31T07:56:24;17.77;;;7.47;;
41259;SDS011;26993;48.958;9.330;2022-10-31T07:59:10;14.77;;;6.67;;
41259;SDS011;26993;48.958;9.330;2022-10-31T08:01:58;19.93;;;7.60;;
41259;SDS011;26993;48.958;9.330;2022-10-31T08:04:45;17.17;;;7.57;;
41259;SDS011;26993;48.958;9.330;2022-10-31T08:07:35;17.07;;;7.53;;
41259;SDS011;26993;48.958;9.330;2022-10-31T08:10:23;25.33;;;8.13;;
41259;SDS011;26993;48.958;9.330;2022-10-31T08:13:11;27.77;;;7.47;;
41259;SDS011;26993;48.958;9.330;2022-10-31T08:15:58;29.60;;;7.77;;
41259;SDS011;26993;48.958;9.330;2022-10-31T08:18:48;21.40;;;7.07;;
41259;SDS011;26993;48.958;9.330;2022-10-31T08:21:35;17.43;;;7.40;;
41259;SDS011;26993;48.958;9.330;2022-10-31T08:24:23;29.73;;;7.33;;
41259;SDS011;26993;48.958;9.330;2022-10-31T08:27:10;21.03;;;8.30;;
41259;SDS011;26993;48.958;9.330;2022-10-31T08:29:57;20.27;;;8.47;;
41259;SDS011;26993;48.958;9.330;2022-10-31T08:32:44;22.20;;;8.67;;
41259;SDS011;26993;48.958;9.330;2022-10-31T08:35:31;21.63;;;7.90;;
41259;SDS011;26993;48.958;9.330;2022-10-31T08:38:19;16.53;;;8.17;;
41259;SDS011;26993;48.958;9.330;2022-10-31T08:41:08;19.53;;;7.83;;
41259;SDS011;26993;48.958;9.330;2022-10-31T08:43:54;22.43;;;7.97;;
41259;SDS011;26993;48.958;9.330;2022-10-31T08:46:41;18.80;;;8.27;;
41259;SDS011;26993;48.958;9.330;2022-10-31T08:49:28;21.10;;;10.00;;
41259;SDS011;26993;48.958;9.330;2022-10-31T08:52:14;20.90;;;8.43;;
41259;SDS011;26993;48.958;9.330;2022-10-31T08:55:01;19.77;;;7.63;;
41259;SDS011;26993;48.958;9.330;2022-10-31T08:57:53;17.53;;;6.10;;
41259;SDS011;26993;48.958;9.330;2022-10-31T09:00:40;17.73;;;6.23;;
41259;SDS011;26993;48.958;9.330;2022-10-31T09:03:28;15.60;;;5.73;;
41259;SDS011;26993;48.958;9.330;2022-10-31T09:06:17;11.53;;;6.97;;
41259;SDS011;26993;48.958;9.330;2022-10-31T09:09:03;15.10;;;6.60;;
41259;SDS011;26993;48.958;9.330;2022-10-31T09:11:50;13.37;;;6.67;;
41259;SDS011;26993;48.958;9.330;2022-10-31T09:14:38;13.93;;;6.10;;
41259;SDS011;26993;48.958;9.330;2022-10-31T09:17:25;15.10;;;6.37;;
41259;SDS011;26993;48.958;9.330;2022-10-31T09:20:12;16.97;;;6.70;;
41259;SDS011;26993;48.958;9.330;2022-10-31T09:22:59;17.27;;;6.67;;
41259;SDS011;26993;48.958;9.330;2022-10-31T09:25:48;14.13;;;6.97;;
41259;SDS011;26993;48.958;9.330;2022-10-31T09:28:35;14.63;;;6.90;;
41259;SDS011;26993;48.958;9.330;2022-10-31T09:31:23;16.13;;;6.20;;
41259;SDS011;26993;48.958;9.330;2022-10-31T09:34:10;16.77;;;7.13;;
41259;SDS011;26993;48.958;9.330;2022-10-31T09:36:56;18.42;;;7.35;;
41259;SDS011;26993;48.958;9.330;2022-10-31T09:39:43;15.97;;;7.20;;
41259;SDS011;26993;48.958;9.330;2022-10-31T09:42:36;15.77;;;6.43;;
41259;SDS011;26993;48.958;9.330;2022-10-31T09:45:44;15.27;;;5.88;;
41259;SDS011;26993;48.958;9.330;2022-10-31T09:48:44;22.37;;;6.47;;
41259;SDS011;26993;48.958;9.330;2022-10-31T09:51:39;12.65;;;6.15;;
41259;SDS011;26993;48.958;9.330;2022-10-31T09:54:32;9.95;;;5.70;;
41259;SDS011;26993;48.958;9.330;2022-10-31T09:57:23;17.02;;;6.57;;
41259;SDS011;26993;48.958;9.330;2022-10-31T10:00:14;18.23;;;6.43;;
41259;SDS011;26993;48.958;9.330;2022-10-31T10:03:06;20.63;;;6.22;;
41259;SDS011;26993;48.958;9.330;2022-10-31T10:06:04;15.70;;;6.05;;
41259;SDS011;26993;48.958;9.330;2022-10-31T10:08:59;15.85;;;6.60;;
41259;SDS011;26993;48.958;9.330;2022-10-31T10:11:48;19.80;;;6.70;;
41259;SDS011;26993;48.958;9.330;2022-10-31T10:14:49;19.10;;;7.23;;
41259;SDS011;26993;48.958;9.330;2022-10-31T10:17:46;20.98;;;6.32;;
41259;SDS011;26993;48.958;9.330;2022-10-31T10:20:40;37.65;;;7.32;;
41259;SDS011;26993;48.958;9.330;2022-10-31T10:23:48;19.58;;;6.38;;
41259;SDS011;26993;48.958;9.330;2022-10-31T10:26:43;17.75;;;6.38;;
41259;SDS011;26993;48.958;9.330;2022-10-31T10:29:44;15.60;;;7.28;;
41259;SDS011;26993;48.958;9.330;2022-10-31T10:32:37;12.43;;;6.13;;
41259;SDS011;26993;48.958;9.330;2022-10-31T10:35:29;17.95;;;6.97;;
41259;SDS011;26993;48.958;9.330;2022-10-31T10:38:20;19.88;;;6.63;;
41259;SDS011;26993;48.958;9.330;2022-10-31T10:41:16;16.08;;;6.55;;
41259;SDS011;26993;48.958;9.330;2022-10-31T10:44:04;18.15;;;6.70;;
41259;SDS011;26993;48.958;9.330;2022-10-31T10:46:55;17.75;;;6.80;;
41259;SDS011;26993;48.958;9.330;2022-10-31T10:50:03;18.25;;;6.28;;
41259;SDS011;26993;48.958;9.330;2022-10-31T10:52:57;18.67;;;6.72;;
41259;SDS011;26993;48.958;9.330;2022-10-31T10:55:49;28.50;;;7.78;;
41259;SDS011;26993;48.958;9.330;2022-10-31T10:58:42;24.65;;;6.47;;
41259;SDS011;26993;48.958;9.330;2022-10-31T11:01:30;17.17;;;7.70;;
41259;SDS011;26993;48.958;9.330;2022-10-31T11:07:25;20.30;;;7.25;;
41259;SDS011;26993;48.958;9.330;2022-10-31T11:10:24;20.38;;;7.78;;
41259;SDS011;26993;48.958;9.330;2022-10-31T11:13:19;17.23;;;8.35;;
41259;SDS011;26993;48.958;9.330;2022-10-31T11:16:10;13.93;;;6.65;;
41259;SDS011;26993;48.958;9.330;2022-10-31T11:19:06;20.27;;;6.90;;
41259;SDS011;26993;48.958;9.330;2022-10-31T11:22:05;15.73;;;6.38;;
41259;SDS011;26993;48.958;9.330;2022-10-31T11:24:52;20.13;;;6.85;;
41259;SDS011;26993;48.958;9.330;2022-10-31T11:27:39;18.58;;;6.30;;
41259;SDS011;26993;48.958;9.330;2022-10-31T11:30:26;17.02;;;6.75;;
41259;SDS011;26993;48.958;9.330;2022-10-31T11:33:19;21.05;;;7.00;;
41259;SDS011;26993;48.958;9.330;2022-10-31T11:36:14;22.70;;;6.53;;
41259;SDS011;26993;48.958;9.330;2022-10-31T11:39:16;19.55;;;6.90;;
41259;SDS011;26993;48.958;9.330;2022-10-31T11:42:05;23.45;;;7.07;;
41259;SDS011;26993;48.958;9.330;2022-10-31T11:44:52;23.02;;;7.13;;
41259;SDS011;26993;48.958;9.330;2022-10-31T11:47:41;19.83;;;7.38;;
41259;SDS011;26993;48.958;9.330;2022-10-31T11:50:34;24.00;;;7.35;;
41259;SDS011;26993;48.958;9.330;2022-10-31T11:53:26;23.30;;;7.55;;
41259;SDS011;26993;48.958;9.330;2022-10-31T11:56:15;19.35;;;7.88;;
41259;SDS011;26993;48.958;9.330;2022-10-31T11:59:03;14.73;;;7.35;;
41259;SDS011;26993;48.958;9.330;2022-10-31T12:01:52;17.25;;;7.80;;
41259;SDS011;26993;48.958;9.330;2022-10-31T12:04:40;19.98;;;7.47;;
41259;SDS011;26993;48.958;9.330;2022-10-31T12:07:32;12.88;;;6.35;;
41259;SDS011;26993;48.958;9.330;2022-10-31T12:10:19;16.30;;;6.63;;
41259;SDS011;26993;48.958;9.330;2022-10-31T12:13:14;14.13;;;7.32;;
41259;SDS011;26993;48.958;9.330;2022-10-31T12:16:17;22.27;;;7.07;;
41259;SDS011;26993;48.958;9.330;2022-10-31T12:19:11;14.52;;;6.07;;
41259;SDS011;26993;48.958;9.330;2022-10-31T12:22:12;12.25;;;6.40;;
41259;SDS011;26993;48.958;9.330;2022-10-31T12:25:10;20.00;;;7.07;;
41259;SDS011;26993;48.958;9.330;2022-10-31T12:28:11;14.20;;;6.38;;
41259;SDS011;26993;48.958;9.330;2022-10-31T12:31:22;30.83;;;6.50;;
41259;SDS011;26993;48.958;9.330;2022-10-31T12:34:34;23.50;;;6.43;;
41259;SDS011;26993;48.958;9.330;2022-10-31T12:37:35;22.95;;;5.68;;
41259;SDS011;26993;48.958;9.330;2022-10-31T12:40:46;20.23;;;6.72;;
41259;SDS011;26993;48.958;9.330;2022-10-31T12:43:57;12.68;;;6.45;;
41259;SDS011;26993;48.958;9.330;2022-10-31T12:46:58;15.25;;;5.60;;
41259;SDS011;26993;48.958;9.330;2022-10-31T12:50:01;18.05;;;6.03;;
41259;SDS011;26993;48.958;9.330;2022-10-31T12:53:10;19.75;;;6.95;;
41259;SDS011;26993;48.958;9.330;2022-10-31T12:56:16;19.25;;;6.43;;
41259;SDS011;26993;48.958;9.330;2022-10-31T12:59:14;19.58;;;7.28;;
41259;SDS011;26993;48.958;9.330;2022-10-31T13:02:09;15.63;;;6.32;;
41259;SDS011;26993;48.958;9.330;2022-10-31T13:05:03;19.00;;;6.38;;
41259;SDS011;26993;48.958;9.330;2022-10-31T13:07:59;17.98;;;6.20;;
41259;SDS011;26993;48.958;9.330;2022-10-31T13:11:02;17.63;;;5.82;;
41259;SDS011;26993;48.958;9.330;2022-10-31T13:13:58;19.15;;;5.90;;
41259;SDS011;26993;48.958;9.330;2022-10-31T13:16:49;19.30;;;6.95;;
41259;SDS011;26993;48.958;9.330;2022-10-31T13:19:38;16.10;;;5.90;;
41259;SDS011;26993;48.958;9.330;2022-10-31T13:22:29;14.75;;;6.05;;
41259;SDS011;26993;48.958;9.330;2022-10-31T13:25:21;18.00;;;6.00;;
41259;SDS011;26993;48.958;9.330;2022-10-31T13:28:12;22.35;;;6.90;;
41259;SDS011;26993;48.958;9.330;2022-10-31T13:31:13;17.13;;;5.97;;
41259;SDS011;26993;48.958;9.330;2022-10-31T13:34:02;18.83;;;6.13;;
41259;SDS011;26993;48.958;9.330;2022-10-31T13:36:57;14.13;;;5.55;;
41259;SDS011;26993;48.958;9.330;2022-10-31T13:39:58;16.98;;;6.38;;
41259;SDS011;26993;48.958;9.330;2022-10-31T13:43:02;18.48;;;6.35;;
41259;SDS011;26993;48.958;9.330;2022-10-31T13:45:56;13.55;;;5.93;;
41259;SDS011;26993;48.958;9.330;2022-10-31T13:48:44;17.20;;;6.45;;
41259;SDS011;26993;48.958;9.330;2022-10-31T13:51:32;16.42;;;6.75;;
41259;SDS011;26993;48.958;9.330;2022-10-31T13:54:20;13.20;;;6.88;;
41259;SDS011;26993;48.958;9.330;2022-10-31T13:57:13;18.08;;;7.40;;
41259;SDS011;26993;48.958;9.330;2022-10-31T14:00:05;13.18;;;6.70;;
41259;SDS011;26993;48.958;9.330;2022-10-31T14:02:53;13.70;;;7.15;;
41259;SDS011;26993;48.958;9.330;2022-10-31T14:05:44;12.85;;;7.18;;
41259;SDS011;26993;48.958;9.330;2022-10-31T14:08:40;20.35;;;8.23;;
41259;SDS011;26993;48.958;9.330;2022-10-31T14:11:34;13.25;;;7.43;;
41259;SDS011;26993;48.958;9.330;2022-10-31T14:14:26;14.82;;;7.72;;
41259;SDS011;26993;48.958;9.330;2022-10-31T14:17:23;17.00;;;8.02;;
41259;SDS011;26993;48.958;9.330;2022-10-31T14:20:24;13.15;;;7.90;;
41259;SDS011;26993;48.958;9.330;2022-10-31T15:04:07;15.00;;;8.73;;
41259;SDS011;26993;48.958;9.330;2022-10-31T15:07:00;18.05;;;9.35;;
41259;SDS011;26993;48.958;9.330;2022-10-31T15:09:56;22.27;;;9.50;;
41259;SDS011;26993;48.958;9.330;2022-10-31T15:12:43;16.42;;;8.27;;
41259;SDS011;26993;48.958;9.330;2022-10-31T15:15:30;18.00;;;9.45;;
41259;SDS011;26993;48.958;9.330;2022-10-31T15:18:19;11.45;;;8.35;;
41259;SDS011;26993;48.958;9.330;2022-10-31T15:21:09;18.40;;;9.10;;
41259;SDS011;26993;48.958;9.330;2022-10-31T15:23:57;16.27;;;7.90;;
41259;SDS011;26993;48.958;9.330;2022-10-31T15:26:47;14.25;;;8.93;;
41259;SDS011;26993;48.958;9.330;2022-10-31T15:29:36;21.17;;;9.70;;
41259;SDS011;26993;48.958;9.330;2022-10-31T15:32:23;19.75;;;9.02;;
41259;SDS011;26993;48.958;9.330;2022-10-31T15:35:14;18.63;;;9.50;;
41259;SDS011;26993;48.958;9.330;2022-10-31T15:38:08;16.77;;;9.95;;
41259;SDS011;26993;48.958;9.330;2022-10-31T15:40:56;22.27;;;10.05;;
41259;SDS011;26993;48.958;9.330;2022-10-31T15:43:45;17.90;;;9.13;;
41259;SDS011;26993;48.958;9.330;2022-10-31T15:46:33;28.55;;;10.48;;
41259;SDS011;26993;48.958;9.330;2022-10-31T15:49:25;23.40;;;11.00;;
41259;SDS011;26993;48.958;9.330;2022-10-31T15:52:17;22.35;;;12.05;;
41259;SDS011;26993;48.958;9.330;2022-10-31T15:55:16;17.00;;;10.27;;
41259;SDS011;26993;48.958;9.330;2022-10-31T15:58:10;17.73;;;10.13;;
41259;SDS011;26993;48.958;9.330;2022-10-31T16:00:59;27.42;;;11.40;;
41259;SDS011;26993;48.958;9.330;2022-10-31T16:03:56;20.92;;;9.65;;
41259;SDS011;26993;48.958;9.330;2022-10-31T16:06:45;17.13;;;10.07;;
41259;SDS011;26993;48.958;9.330;2022-10-31T16:09:54;15.93;;;9.30;;
41259;SDS011;26993;48.958;9.330;2022-10-31T16:12:45;15.27;;;9.02;;
41259;SDS011;26993;48.958;9.330;2022-10-31T16:15:32;20.80;;;10.00;;
41259;SDS011;26993;48.958;9.330;2022-10-31T16:18:20;16.95;;;10.30;;
41259;SDS011;26993;48.958;9.330;2022-10-31T16:21:07;16.40;;;9.27;;
41259;SDS011;26993;48.958;9.330;2022-10-31T16:23:57;13.73;;;9.05;;
41259;SDS011;26993;48.958;9.330;2022-10-31T16:26:49;17.55;;;9.20;;
41259;SDS011;26993;48.958;9.330;2022-10-31T16:29:41;16.73;;;9.35;;
41259;SDS011;26993;48.958;9.330;2022-10-31T16:32:33;18.33;;;8.57;;
41259;SDS011;26993;48.958;9.330;2022-10-31T16:35:25;14.77;;;8.02;;
41259;SDS011;26993;48.958;9.330;2022-10-31T16:38:13;15.23;;;8.87;;
41259;SDS011;26993;48.958;9.330;2022-10-31T16:41:00;17.97;;;8.73;;
41259;SDS011;26993;48.958;9.330;2022-10-31T16:43:47;15.95;;;9.05;;
41259;SDS011;26993;48.958;9.330;2022-10-31T16:46:35;20.17;;;9.03;;
41259;SDS011;26993;48.958;9.330;2022-10-31T16:49:23;17.10;;;10.43;;
41259;SDS011;26993;48.958;9.330;2022-10-31T16:52:09;17.80;;;11.00;;
41259;SDS011;26993;48.958;9.330;2022-10-31T16:54:56;46.90;;;26.43;;
41259;SDS011;26993;48.958;9.330;2022-10-31T16:57:43;18.37;;;9.97;;
41259;SDS011;26993;48.958;9.330;2022-10-31T17:00:32;19.33;;;10.27;;
41259;SDS011;26993;48.958;9.330;2022-10-31T17:03:20;18.40;;;10.27;;
41259;SDS011;26993;48.958;9.330;2022-10-31T17:06:08;21.03;;;10.33;;
41259;SDS011;26993;48.958;9.330;2022-10-31T17:08:56;21.93;;;11.53;;
41259;SDS011;26993;48.958;9.330;2022-10-31T17:11:44;20.83;;;13.07;;
41259;SDS011;26993;48.958;9.330;2022-10-31T17:14:32;27.90;;;11.50;;
41259;SDS011;26993;48.958;9.330;2022-10-31T17:17:19;18.10;;;11.17;;
41259;SDS011;26993;48.958;9.330;2022-10-31T17:20:11;20.77;;;12.23;;
41259;SDS011;26993;48.958;9.330;2022-10-31T17:23:04;22.43;;;12.30;;
41259;SDS011;26993;48.958;9.330;2022-10-31T17:25:51;28.53;;;15.70;;
41259;SDS011;26993;48.958;9.330;2022-10-31T17:28:37;40.07;;;22.10;;
41259;SDS011;26993;48.958;9.330;2022-10-31T17:31:26;20.13;;;10.97;;
41259;SDS011;26993;48.958;9.330;2022-10-31T17:34:14;22.33;;;11.13;;
41259;SDS011;26993;48.958;9.330;2022-10-31T17:37:04;29.23;;;12.83;;
41259;SDS011;26993;48.958;9.330;2022-10-31T17:39:51;22.53;;;12.27;;